sensor_id;sensor_type;location;lat;lon;timestamp;temperature;humidity
21425;DHT22;10873;51.132;16.848;2022-12-18T00:02:22;23.00;41.30
21425;DHT22;10873;51.132;16.848;2022-12-18T00:07:24;23.00;41.40
21425;DHT22;10873;51.132;16.848;2022-12-18T00:09:50;23.00;41.50
21425;DHT22;10873;51.132;16.848;2022-12-18T00:12:17;23.00;41.60
21425;DHT22;10873;51.132;16.848;2022-12-18T00:14:43;23.00;41.60
21425;DHT22;10873;51.132;16.848;2022-12-18T00:17:09;23.00;41.60
21425;DHT22;10873;51.132;16.848;2022-12-18T00:19:35;23.00;41.40
21425;DHT22;10873;51.132;16.848;2022-12-18T00:22:01;23.00;41.40
21425;DHT22;10873;51.132;16.848;2022-12-18T00:24:27;23.00;41.50
21425;DHT22;10873;51.132;16.848;2022-12-18T00:26:53;23.00;41.50
21425;DHT22;10873;51.132;16.848;2022-12-18T00:29:20;23.00;41.60
21425;DHT22;10873;51.132;16.848;2022-12-18T00:31:46;22.90;41.60
21425;DHT22;10873;51.132;16.848;2022-12-18T00:34:13;22.90;41.70
21425;DHT22;10873;51.132;16.848;2022-12-18T00:36:39;22.90;41.70
21425;DHT22;10873;51.132;16.848;2022-12-18T00:39:06;22.90;41.70
21425;DHT22;10873;51.132;16.848;2022-12-18T00:41:32;22.90;41.60
21425;DHT22;10873;51.132;16.848;2022-12-18T00:44:18;23.00;41.60
21425;DHT22;10873;51.132;16.848;2022-12-18T00:46:47;23.00;42.30
21425;DHT22;10873;51.132;16.848;2022-12-18T00:49:13;23.00;41.70
21425;DHT22;10873;51.132;16.848;2022-12-18T00:51:39;22.90;41.60
21425;DHT22;10873;51.132;16.848;2022-12-18T00:54:06;22.90;41.70
21425;DHT22;10873;51.132;16.848;2022-12-18T00:56:31;22.90;41.70
21425;DHT22;10873;51.132;16.848;2022-12-18T00:58:58;22.90;41.70
21425;DHT22;10873;51.132;16.848;2022-12-18T01:01:23;22.90;41.70
21425;DHT22;10873;51.132;16.848;2022-12-18T01:03:51;22.90;41.80
21425;DHT22;10873;51.132;16.848;2022-12-18T01:06:17;22.90;41.60
21425;DHT22;10873;51.132;16.848;2022-12-18T01:08:43;22.90;41.60
21425;DHT22;10873;51.132;16.848;2022-12-18T01:11:11;22.90;41.60
21425;DHT22;10873;51.132;16.848;2022-12-18T01:13:38;22.90;41.70
21425;DHT22;10873;51.132;16.848;2022-12-18T01:16:04;22.90;41.70
21425;DHT22;10873;51.132;16.848;2022-12-18T01:18:30;22.90;41.70
21425;DHT22;10873;51.132;16.848;2022-12-18T01:20:57;22.90;41.70
21425;DHT22;10873;51.132;16.848;2022-12-18T01:23:24;22.90;41.80
21425;DHT22;10873;51.132;16.848;2022-12-18T01:25:49;22.90;41.80
21425;DHT22;10873;51.132;16.848;2022-12-18T01:28:16;22.90;41.80
21425;DHT22;10873;51.132;16.848;2022-12-18T01:30:41;22.90;41.70
21425;DHT22;10873;51.132;16.848;2022-12-18T01:33:08;22.90;41.70
21425;DHT22;10873;51.132;16.848;2022-12-18T01:35:33;22.90;41.70
21425;DHT22;10873;51.132;16.848;2022-12-18T01:38:06;22.90;41.70
21425;DHT22;10873;51.132;16.848;2022-12-18T01:40:32;22.90;41.70
21425;DHT22;10873;51.132;16.848;2022-12-18T01:42:58;22.90;41.80
21425;DHT22;10873;51.132;16.848;2022-12-18T01:45:26;22.90;41.80
21425;DHT22;10873;51.132;16.848;2022-12-18T01:47:55;22.90;41.80
21425;DHT22;10873;51.132;16.848;2022-12-18T01:50:24;22.90;41.80
21425;DHT22;10873;51.132;16.848;2022-12-18T01:52:53;22.90;41.90
21425;DHT22;10873;51.132;16.848;2022-12-18T01:55:23;22.90;41.80
21425;DHT22;10873;51.132;16.848;2022-12-18T01:57:53;22.90;41.70
21425;DHT22;10873;51.132;16.848;2022-12-18T02:00:21;22.90;41.70
21425;DHT22;10873;51.132;16.848;2022-12-18T02:02:47;22.90;41.60
21425;DHT22;10873;51.132;16.848;2022-12-18T02:05:16;22.90;41.60
21425;DHT22;10873;51.132;16.848;2022-12-18T02:07:49;22.90;41.70
21425;DHT22;10873;51.132;16.848;2022-12-18T02:10:23;22.90;41.70
21425;DHT22;10873;51.132;16.848;2022-12-18T02:12:56;22.90;41.70
21425;DHT22;10873;51.132;16.848;2022-12-18T02:15:32;22.90;41.70
21425;DHT22;10873;51.132;16.848;2022-12-18T02:18:05;22.90;41.70
21425;DHT22;10873;51.132;16.848;2022-12-18T02:20:35;22.90;41.70
21425;DHT22;10873;51.132;16.848;2022-12-18T02:23:12;23.00;41.70
21425;DHT22;10873;51.132;16.848;2022-12-18T02:26:00;23.00;41.70
21425;DHT22;10873;51.132;16.848;2022-12-18T02:28:32;23.00;41.70
21425;DHT22;10873;51.132;16.848;2022-12-18T02:31:02;23.00;41.70
21425;DHT22;10873;51.132;16.848;2022-12-18T02:33:31;23.00;41.70
21425;DHT22;10873;51.132;16.848;2022-12-18T02:36:00;23.00;41.70
21425;DHT22;10873;51.132;16.848;2022-12-18T02:38:27;22.90;41.70
21425;DHT22;10873;51.132;16.848;2022-12-18T02:40:56;23.00;41.70
21425;DHT22;10873;51.132;16.848;2022-12-18T02:43:23;23.00;41.80
21425;DHT22;10873;51.132;16.848;2022-12-18T02:45:52;23.00;41.70
21425;DHT22;10873;51.132;16.848;2022-12-18T02:48:23;23.00;41.70
21425;DHT22;10873;51.132;16.848;2022-12-18T02:50:55;23.00;41.70
21425;DHT22;10873;51.132;16.848;2022-12-18T02:53:27;23.00;41.70
21425;DHT22;10873;51.132;16.848;2022-12-18T02:56:02;23.00;41.60
21425;DHT22;10873;51.132;16.848;2022-12-18T02:58:34;23.00;41.60
21425;DHT22;10873;51.132;16.848;2022-12-18T03:01:10;23.00;41.60
21425;DHT22;10873;51.132;16.848;2022-12-18T03:03:40;23.00;41.70
21425;DHT22;10873;51.132;16.848;2022-12-18T03:06:10;23.00;41.70
21425;DHT22;10873;51.132;16.848;2022-12-18T03:08:41;23.00;41.70
21425;DHT22;10873;51.132;16.848;2022-12-18T03:11:11;23.00;41.70
21425;DHT22;10873;51.132;16.848;2022-12-18T03:13:40;23.00;41.70
21425;DHT22;10873;51.132;16.848;2022-12-18T03:16:11;23.00;41.60
21425;DHT22;10873;51.132;16.848;2022-12-18T03:18:42;23.00;41.60
21425;DHT22;10873;51.132;16.848;2022-12-18T03:21:12;23.00;41.60
21425;DHT22;10873;51.132;16.848;2022-12-18T03:23:43;23.00;41.60
21425;DHT22;10873;51.132;16.848;2022-12-18T03:26:15;23.00;41.50
21425;DHT22;10873;51.132;16.848;2022-12-18T03:28:45;23.00;41.50
21425;DHT22;10873;51.132;16.848;2022-12-18T03:31:14;23.00;41.50
21425;DHT22;10873;51.132;16.848;2022-12-18T03:33:44;23.00;41.60
21425;DHT22;10873;51.132;16.848;2022-12-18T03:36:12;23.00;41.60
21425;DHT22;10873;51.132;16.848;2022-12-18T03:38:38;23.00;41.70
21425;DHT22;10873;51.132;16.848;2022-12-18T03:41:12;23.00;41.70
21425;DHT22;10873;51.132;16.848;2022-12-18T03:43:45;23.00;41.60
21425;DHT22;10873;51.132;16.848;2022-12-18T03:46:17;23.00;41.60
21425;DHT22;10873;51.132;16.848;2022-12-18T03:48:55;23.00;41.50
21425;DHT22;10873;51.132;16.848;2022-12-18T03:51:26;23.00;41.50
21425;DHT22;10873;51.132;16.848;2022-12-18T03:53:57;23.00;41.50
21425;DHT22;10873;51.132;16.848;2022-12-18T03:56:28;23.00;41.40
21425;DHT22;10873;51.132;16.848;2022-12-18T03:58:56;23.00;41.50
21425;DHT22;10873;51.132;16.848;2022-12-18T04:01:27;23.00;41.50
21425;DHT22;10873;51.132;16.848;2022-12-18T04:03:55;23.00;41.50
21425;DHT22;10873;51.132;16.848;2022-12-18T04:06:22;23.00;41.50
21425;DHT22;10873;51.132;16.848;2022-12-18T04:08:49;23.00;41.50
21425;DHT22;10873;51.132;16.848;2022-12-18T04:11:15;23.00;41.50
21425;DHT22;10873;51.132;16.848;2022-12-18T04:13:43;23.00;41.50
21425;DHT22;10873;51.132;16.848;2022-12-18T04:16:09;23.10;41.50
21425;DHT22;10873;51.132;16.848;2022-12-18T04:18:35;23.00;41.40
21425;DHT22;10873;51.132;16.848;2022-12-18T04:21:02;23.00;41.30
21425;DHT22;10873;51.132;16.848;2022-12-18T04:23:28;23.10;41.40
21425;DHT22;10873;51.132;16.848;2022-12-18T04:25:54;23.10;41.40
21425;DHT22;10873;51.132;16.848;2022-12-18T04:28:20;23.00;41.40
21425;DHT22;10873;51.132;16.848;2022-12-18T04:30:48;23.00;41.40
21425;DHT22;10873;51.132;16.848;2022-12-18T04:33:14;23.00;41.40
21425;DHT22;10873;51.132;16.848;2022-12-18T04:35:43;23.00;41.50
21425;DHT22;10873;51.132;16.848;2022-12-18T04:38:09;23.00;41.40
21425;DHT22;10873;51.132;16.848;2022-12-18T04:40:36;23.00;41.40
21425;DHT22;10873;51.132;16.848;2022-12-18T04:43:02;23.10;41.40
21425;DHT22;10873;51.132;16.848;2022-12-18T04:45:29;23.00;41.20
21425;DHT22;10873;51.132;16.848;2022-12-18T04:47:59;23.00;41.20
21425;DHT22;10873;51.132;16.848;2022-12-18T04:50:25;23.00;41.20
21425;DHT22;10873;51.132;16.848;2022-12-18T04:52:52;23.10;41.30
21425;DHT22;10873;51.132;16.848;2022-12-18T04:55:19;23.00;41.20
21425;DHT22;10873;51.132;16.848;2022-12-18T04:57:45;23.00;41.20
21425;DHT22;10873;51.132;16.848;2022-12-18T05:00:12;23.00;41.30
21425;DHT22;10873;51.132;16.848;2022-12-18T05:02:38;23.00;41.20
21425;DHT22;10873;51.132;16.848;2022-12-18T05:05:06;23.00;41.20
21425;DHT22;10873;51.132;16.848;2022-12-18T05:07:33;23.00;41.20
21425;DHT22;10873;51.132;16.848;2022-12-18T05:09:58;23.00;41.20
21425;DHT22;10873;51.132;16.848;2022-12-18T05:12:25;23.00;41.20
21425;DHT22;10873;51.132;16.848;2022-12-18T05:14:51;23.10;41.20
21425;DHT22;10873;51.132;16.848;2022-12-18T05:17:17;23.00;41.10
21425;DHT22;10873;51.132;16.848;2022-12-18T05:19:43;23.00;41.10
21425;DHT22;10873;51.132;16.848;2022-12-18T05:22:10;23.10;41.10
21425;DHT22;10873;51.132;16.848;2022-12-18T05:24:37;23.00;41.00
21425;DHT22;10873;51.132;16.848;2022-12-18T05:27:03;23.00;41.00
21425;DHT22;10873;51.132;16.848;2022-12-18T05:29:29;23.00;41.00
21425;DHT22;10873;51.132;16.848;2022-12-18T05:31:55;23.00;41.10
21425;DHT22;10873;51.132;16.848;2022-12-18T05:34:21;23.00;41.00
21425;DHT22;10873;51.132;16.848;2022-12-18T05:36:47;23.00;41.00
21425;DHT22;10873;51.132;16.848;2022-12-18T05:39:14;23.00;41.00
21425;DHT22;10873;51.132;16.848;2022-12-18T05:41:40;23.00;41.00
21425;DHT22;10873;51.132;16.848;2022-12-18T05:44:06;23.00;40.90
21425;DHT22;10873;51.132;16.848;2022-12-18T05:46:32;23.00;40.90
21425;DHT22;10873;51.132;16.848;2022-12-18T05:48:59;23.10;40.90
21425;DHT22;10873;51.132;16.848;2022-12-18T05:51:27;23.00;40.90
21425;DHT22;10873;51.132;16.848;2022-12-18T05:53:55;23.00;40.80
21425;DHT22;10873;51.132;16.848;2022-12-18T05:56:23;23.00;40.80
21425;DHT22;10873;51.132;16.848;2022-12-18T05:58:51;23.00;40.80
21425;DHT22;10873;51.132;16.848;2022-12-18T06:01:19;23.00;40.80
21425;DHT22;10873;51.132;16.848;2022-12-18T06:03:45;23.00;40.80
21425;DHT22;10873;51.132;16.848;2022-12-18T06:06:15;23.00;40.90
21425;DHT22;10873;51.132;16.848;2022-12-18T06:08:41;23.00;40.80
21425;DHT22;10873;51.132;16.848;2022-12-18T06:11:07;23.10;40.80
21425;DHT22;10873;51.132;16.848;2022-12-18T06:13:35;23.10;40.80
21425;DHT22;10873;51.132;16.848;2022-12-18T06:16:02;23.10;40.70
21425;DHT22;10873;51.132;16.848;2022-12-18T06:18:28;23.10;40.70
21425;DHT22;10873;51.132;16.848;2022-12-18T06:20:55;23.10;40.70
21425;DHT22;10873;51.132;16.848;2022-12-18T06:23:21;23.00;40.50
21425;DHT22;10873;51.132;16.848;2022-12-18T06:25:48;23.00;40.50
21425;DHT22;10873;51.132;16.848;2022-12-18T06:28:13;23.10;40.50
21425;DHT22;10873;51.132;16.848;2022-12-18T06:30:43;23.10;40.60
21425;DHT22;10873;51.132;16.848;2022-12-18T06:33:08;23.00;40.70
21425;DHT22;10873;51.132;16.848;2022-12-18T06:35:35;23.00;40.70
21425;DHT22;10873;51.132;16.848;2022-12-18T06:38:01;23.00;41.10
21425;DHT22;10873;51.132;16.848;2022-12-18T06:40:27;23.00;41.20
21425;DHT22;10873;51.132;16.848;2022-12-18T06:42:53;23.00;41.10
21425;DHT22;10873;51.132;16.848;2022-12-18T06:45:20;23.00;41.00
21425;DHT22;10873;51.132;16.848;2022-12-18T06:47:47;23.00;40.80
21425;DHT22;10873;51.132;16.848;2022-12-18T06:50:13;23.00;40.70
21425;DHT22;10873;51.132;16.848;2022-12-18T06:52:39;23.00;40.70
21425;DHT22;10873;51.132;16.848;2022-12-18T06:55:08;23.00;40.60
21425;DHT22;10873;51.132;16.848;2022-12-18T06:57:34;23.00;40.50
21425;DHT22;10873;51.132;16.848;2022-12-18T07:00:00;23.00;40.80
21425;DHT22;10873;51.132;16.848;2022-12-18T07:02:26;23.00;44.20
21425;DHT22;10873;51.132;16.848;2022-12-18T07:04:53;23.00;44.10
21425;DHT22;10873;51.132;16.848;2022-12-18T07:07:19;23.00;43.90
21425;DHT22;10873;51.132;16.848;2022-12-18T07:09:45;22.90;43.70
21425;DHT22;10873;51.132;16.848;2022-12-18T07:12:11;23.00;43.60
21425;DHT22;10873;51.132;16.848;2022-12-18T07:14:37;23.00;43.30
21425;DHT22;10873;51.132;16.848;2022-12-18T07:17:03;23.00;43.10
21425;DHT22;10873;51.132;16.848;2022-12-18T07:19:29;23.00;42.90
21425;DHT22;10873;51.132;16.848;2022-12-18T07:21:57;23.00;42.70
21425;DHT22;10873;51.132;16.848;2022-12-18T07:24:23;23.00;42.40
21425;DHT22;10873;51.132;16.848;2022-12-18T07:26:49;23.00;42.20
21425;DHT22;10873;51.132;16.848;2022-12-18T07:29:15;23.00;42.00
21425;DHT22;10873;51.132;16.848;2022-12-18T07:31:41;23.00;41.80
21425;DHT22;10873;51.132;16.848;2022-12-18T07:34:10;23.00;41.50
21425;DHT22;10873;51.132;16.848;2022-12-18T07:36:36;22.90;41.30
21425;DHT22;10873;51.132;16.848;2022-12-18T07:39:03;23.00;41.20
21425;DHT22;10873;51.132;16.848;2022-12-18T07:41:29;23.00;41.40
21425;DHT22;10873;51.132;16.848;2022-12-18T07:43:55;22.90;42.30
21425;DHT22;10873;51.132;16.848;2022-12-18T07:46:21;22.90;42.60
21425;DHT22;10873;51.132;16.848;2022-12-18T07:48:47;22.90;42.80
21425;DHT22;10873;51.132;16.848;2022-12-18T07:51:14;22.90;42.90
21425;DHT22;10873;51.132;16.848;2022-12-18T07:53:40;22.90;42.90
21425;DHT22;10873;51.132;16.848;2022-12-18T07:56:10;22.90;42.70
21425;DHT22;10873;51.132;16.848;2022-12-18T07:58:36;22.90;42.60
21425;DHT22;10873;51.132;16.848;2022-12-18T08:01:03;22.90;42.50
21425;DHT22;10873;51.132;16.848;2022-12-18T08:03:30;22.90;42.30
21425;DHT22;10873;51.132;16.848;2022-12-18T08:05:58;22.90;42.10
21425;DHT22;10873;51.132;16.848;2022-12-18T08:08:25;22.90;42.00
21425;DHT22;10873;51.132;16.848;2022-12-18T08:10:51;22.90;41.90
21425;DHT22;10873;51.132;16.848;2022-12-18T08:13:18;22.90;41.80
21425;DHT22;10873;51.132;16.848;2022-12-18T08:15:44;22.90;41.70
21425;DHT22;10873;51.132;16.848;2022-12-18T08:18:10;22.90;41.50
21425;DHT22;10873;51.132;16.848;2022-12-18T08:20:36;22.90;41.40
21425;DHT22;10873;51.132;16.848;2022-12-18T08:23:02;22.90;41.30
21425;DHT22;10873;51.132;16.848;2022-12-18T08:25:28;22.80;41.20
21425;DHT22;10873;51.132;16.848;2022-12-18T08:27:54;22.90;41.20
21425;DHT22;10873;51.132;16.848;2022-12-18T08:30:23;22.80;41.10
21425;DHT22;10873;51.132;16.848;2022-12-18T08:32:51;22.90;41.10
21425;DHT22;10873;51.132;16.848;2022-12-18T08:35:17;22.80;41.00
21425;DHT22;10873;51.132;16.848;2022-12-18T08:37:43;22.80;41.00
21425;DHT22;10873;51.132;16.848;2022-12-18T08:40:10;22.80;41.00
21425;DHT22;10873;51.132;16.848;2022-12-18T08:42:36;22.80;41.00
21425;DHT22;10873;51.132;16.848;2022-12-18T08:45:20;22.80;41.60
21425;DHT22;10873;51.132;16.848;2022-12-18T08:47:47;22.80;40.80
21425;DHT22;10873;51.132;16.848;2022-12-18T08:50:14;22.80;40.80
21425;DHT22;10873;51.132;16.848;2022-12-18T08:52:40;22.80;40.70
21425;DHT22;10873;51.132;16.848;2022-12-18T08:55:08;22.80;40.70
21425;DHT22;10873;51.132;16.848;2022-12-18T08:57:34;22.80;40.70
21425;DHT22;10873;51.132;16.848;2022-12-18T09:00:00;22.80;40.60
21425;DHT22;10873;51.132;16.848;2022-12-18T09:02:26;22.80;40.50
21425;DHT22;10873;51.132;16.848;2022-12-18T09:04:53;22.80;40.50
21425;DHT22;10873;51.132;16.848;2022-12-18T09:07:19;22.80;40.60
21425;DHT22;10873;51.132;16.848;2022-12-18T09:09:45;22.80;40.60
21425;DHT22;10873;51.132;16.848;2022-12-18T09:12:11;22.70;40.50
21425;DHT22;10873;51.132;16.848;2022-12-18T09:14:37;22.70;40.50
21425;DHT22;10873;51.132;16.848;2022-12-18T09:17:03;22.80;40.40
21425;DHT22;10873;51.132;16.848;2022-12-18T09:19:30;22.80;40.20
21425;DHT22;10873;51.132;16.848;2022-12-18T09:21:57;22.80;40.10
21425;DHT22;10873;51.132;16.848;2022-12-18T09:24:23;22.80;40.00
21425;DHT22;10873;51.132;16.848;2022-12-18T09:26:52;22.80;40.00
21425;DHT22;10873;51.132;16.848;2022-12-18T09:29:19;22.80;39.90
21425;DHT22;10873;51.132;16.848;2022-12-18T09:31:44;22.80;39.90
21425;DHT22;10873;51.132;16.848;2022-12-18T09:34:11;22.80;39.80
21425;DHT22;10873;51.132;16.848;2022-12-18T09:36:38;22.80;39.70
21425;DHT22;10873;51.132;16.848;2022-12-18T09:39:06;22.80;39.70
21425;DHT22;10873;51.132;16.848;2022-12-18T09:41:43;22.80;39.60
21425;DHT22;10873;51.132;16.848;2022-12-18T09:44:16;22.80;39.50
21425;DHT22;10873;51.132;16.848;2022-12-18T09:46:46;22.80;39.50
21425;DHT22;10873;51.132;16.848;2022-12-18T09:49:16;22.80;39.40
21425;DHT22;10873;51.132;16.848;2022-12-18T09:51:46;22.70;39.30
21425;DHT22;10873;51.132;16.848;2022-12-18T09:54:18;22.80;39.40
21425;DHT22;10873;51.132;16.848;2022-12-18T09:56:45;22.70;39.20
21425;DHT22;10873;51.132;16.848;2022-12-18T09:59:18;22.70;39.30
21425;DHT22;10873;51.132;16.848;2022-12-18T10:01:45;22.70;39.30
21425;DHT22;10873;51.132;16.848;2022-12-18T10:04:11;22.70;39.30
21425;DHT22;10873;51.132;16.848;2022-12-18T10:06:42;22.70;39.40
21425;DHT22;10873;51.132;16.848;2022-12-18T10:09:15;22.70;39.40
21425;DHT22;10873;51.132;16.848;2022-12-18T10:11:51;22.70;39.50
21425;DHT22;10873;51.132;16.848;2022-12-18T10:14:25;22.70;39.30
21425;DHT22;10873;51.132;16.848;2022-12-18T10:17:02;22.70;39.20
21425;DHT22;10873;51.132;16.848;2022-12-18T10:19:38;22.60;39.00
21425;DHT22;10873;51.132;16.848;2022-12-18T10:22:14;22.60;39.00
21425;DHT22;10873;51.132;16.848;2022-12-18T10:24:48;22.60;38.80
21425;DHT22;10873;51.132;16.848;2022-12-18T10:27:22;22.60;38.90
21425;DHT22;10873;51.132;16.848;2022-12-18T10:29:49;22.60;38.90
21425;DHT22;10873;51.132;16.848;2022-12-18T10:32:18;22.60;39.00
21425;DHT22;10873;51.132;16.848;2022-12-18T10:34:46;22.60;39.10
21425;DHT22;10873;51.132;16.848;2022-12-18T10:37:16;22.60;39.20
21425;DHT22;10873;51.132;16.848;2022-12-18T10:39:45;22.60;39.10
21425;DHT22;10873;51.132;16.848;2022-12-18T10:42:16;22.60;38.90
21425;DHT22;10873;51.132;16.848;2022-12-18T10:44:43;22.60;38.80
21425;DHT22;10873;51.132;16.848;2022-12-18T10:47:14;22.60;38.70
21425;DHT22;10873;51.132;16.848;2022-12-18T10:49:47;22.50;38.60
21425;DHT22;10873;51.132;16.848;2022-12-18T10:52:17;22.60;38.60
21425;DHT22;10873;51.132;16.848;2022-12-18T10:54:51;22.60;38.60
21425;DHT22;10873;51.132;16.848;2022-12-18T10:57:30;22.50;38.50
21425;DHT22;10873;51.132;16.848;2022-12-18T10:59:58;22.50;38.50
21425;DHT22;10873;51.132;16.848;2022-12-18T11:02:27;22.50;38.50
21425;DHT22;10873;51.132;16.848;2022-12-18T11:04:53;22.50;38.50
21425;DHT22;10873;51.132;16.848;2022-12-18T11:07:19;22.50;38.40
21425;DHT22;10873;51.132;16.848;2022-12-18T11:10:05;22.50;38.20
21425;DHT22;10873;51.132;16.848;2022-12-18T11:12:31;22.50;38.10
21425;DHT22;10873;51.132;16.848;2022-12-18T11:14:57;22.50;38.00
21425;DHT22;10873;51.132;16.848;2022-12-18T11:17:28;22.60;38.00
21425;DHT22;10873;51.132;16.848;2022-12-18T11:19:57;22.50;38.00
21425;DHT22;10873;51.132;16.848;2022-12-18T11:22:26;22.50;38.00
21425;DHT22;10873;51.132;16.848;2022-12-18T11:24:56;22.50;37.90
21425;DHT22;10873;51.132;16.848;2022-12-18T11:27:24;22.50;37.90
21425;DHT22;10873;51.132;16.848;2022-12-18T11:29:51;22.50;37.90
21425;DHT22;10873;51.132;16.848;2022-12-18T11:32:27;22.50;38.00
21425;DHT22;10873;51.132;16.848;2022-12-18T11:34:59;22.50;38.00
21425;DHT22;10873;51.132;16.848;2022-12-18T11:37:27;22.50;38.20
21425;DHT22;10873;51.132;16.848;2022-12-18T11:39:57;22.50;38.10
21425;DHT22;10873;51.132;16.848;2022-12-18T11:42:34;22.50;38.10
21425;DHT22;10873;51.132;16.848;2022-12-18T11:45:08;22.50;38.20
21425;DHT22;10873;51.132;16.848;2022-12-18T11:47:44;22.50;38.20
21425;DHT22;10873;51.132;16.848;2022-12-18T11:50:15;22.50;38.30
21425;DHT22;10873;51.132;16.848;2022-12-18T11:52:42;22.50;38.20
21425;DHT22;10873;51.132;16.848;2022-12-18T11:55:11;22.50;38.10
21425;DHT22;10873;51.132;16.848;2022-12-18T11:57:45;22.50;38.10
21425;DHT22;10873;51.132;16.848;2022-12-18T12:00:15;22.50;38.10
21425;DHT22;10873;51.132;16.848;2022-12-18T12:03:02;22.50;38.20
21425;DHT22;10873;51.132;16.848;2022-12-18T12:05:44;22.50;38.20
21425;DHT22;10873;51.132;16.848;2022-12-18T12:08:15;22.50;38.30
21425;DHT22;10873;51.132;16.848;2022-12-18T12:10:52;22.50;38.20
21425;DHT22;10873;51.132;16.848;2022-12-18T12:13:29;22.50;38.20
21425;DHT22;10873;51.132;16.848;2022-12-18T12:16:06;22.50;38.20
21425;DHT22;10873;51.132;16.848;2022-12-18T12:18:45;22.50;38.10
21425;DHT22;10873;51.132;16.848;2022-12-18T12:21:18;22.50;38.10
21425;DHT22;10873;51.132;16.848;2022-12-18T12:23:51;22.50;38.10
21425;DHT22;10873;51.132;16.848;2022-12-18T12:26:23;22.50;38.20
21425;DHT22;10873;51.132;16.848;2022-12-18T12:29:05;22.50;38.20
21425;DHT22;10873;51.132;16.848;2022-12-18T12:31:44;22.50;38.20
21425;DHT22;10873;51.132;16.848;2022-12-18T12:34:16;22.50;38.10
21425;DHT22;10873;51.132;16.848;2022-12-18T12:36:53;22.50;38.10
21425;DHT22;10873;51.132;16.848;2022-12-18T12:39:23;22.50;38.10
21425;DHT22;10873;51.132;16.848;2022-12-18T12:41:52;22.50;38.00
21425;DHT22;10873;51.132;16.848;2022-12-18T12:44:43;22.50;38.00
21425;DHT22;10873;51.132;16.848;2022-12-18T12:47:14;22.50;37.90
21425;DHT22;10873;51.132;16.848;2022-12-18T12:49:41;22.50;37.80
21425;DHT22;10873;51.132;16.848;2022-12-18T12:52:17;22.50;37.80
21425;DHT22;10873;51.132;16.848;2022-12-18T12:54:47;22.50;37.70
21425;DHT22;10873;51.132;16.848;2022-12-18T12:57:18;22.40;37.70
21425;DHT22;10873;51.132;16.848;2022-12-18T12:59:52;22.40;37.70
21425;DHT22;10873;51.132;16.848;2022-12-18T13:02:28;22.40;37.70
21425;DHT22;10873;51.132;16.848;2022-12-18T13:04:59;22.40;37.60
21425;DHT22;10873;51.132;16.848;2022-12-18T13:07:29;22.40;37.60
21425;DHT22;10873;51.132;16.848;2022-12-18T13:10:24;22.40;37.60
21425;DHT22;10873;51.132;16.848;2022-12-18T13:12:52;22.40;37.60
21425;DHT22;10873;51.132;16.848;2022-12-18T13:15:26;22.40;37.50
21425;DHT22;10873;51.132;16.848;2022-12-18T13:18:13;22.30;37.40
21425;DHT22;10873;51.132;16.848;2022-12-18T13:20:41;22.30;37.40
21425;DHT22;10873;51.132;16.848;2022-12-18T13:23:30;22.30;37.40
21425;DHT22;10873;51.132;16.848;2022-12-18T13:25:56;22.30;37.30
21425;DHT22;10873;51.132;16.848;2022-12-18T13:28:24;22.40;37.30
21425;DHT22;10873;51.132;16.848;2022-12-18T13:31:12;22.40;37.30
21425;DHT22;10873;51.132;16.848;2022-12-18T13:33:43;22.40;37.20
21425;DHT22;10873;51.132;16.848;2022-12-18T13:36:14;22.40;37.20
21425;DHT22;10873;51.132;16.848;2022-12-18T13:38:41;22.40;37.10
21425;DHT22;10873;51.132;16.848;2022-12-18T13:41:23;22.40;37.10
21425;DHT22;10873;51.132;16.848;2022-12-18T13:43:51;22.40;37.10
21425;DHT22;10873;51.132;16.848;2022-12-18T13:46:21;22.40;37.10
21425;DHT22;10873;51.132;16.848;2022-12-18T13:48:57;22.40;37.10
21425;DHT22;10873;51.132;16.848;2022-12-18T13:51:24;22.40;37.10
21425;DHT22;10873;51.132;16.848;2022-12-18T13:53:53;22.40;37.10
21425;DHT22;10873;51.132;16.848;2022-12-18T13:56:23;22.40;37.00
21425;DHT22;10873;51.132;16.848;2022-12-18T13:59:12;22.40;37.00
21425;DHT22;10873;51.132;16.848;2022-12-18T14:01:47;22.40;37.00
21425;DHT22;10873;51.132;16.848;2022-12-18T14:04:23;22.40;37.00
21425;DHT22;10873;51.132;16.848;2022-12-18T14:06:51;22.40;37.00
21425;DHT22;10873;51.132;16.848;2022-12-18T14:09:21;22.40;37.00
21425;DHT22;10873;51.132;16.848;2022-12-18T14:11:50;22.40;36.90
21425;DHT22;10873;51.132;16.848;2022-12-18T14:14:18;22.40;37.00
21425;DHT22;10873;51.132;16.848;2022-12-18T14:16:46;22.40;37.00
21425;DHT22;10873;51.132;16.848;2022-12-18T14:19:15;22.40;36.90
21425;DHT22;10873;51.132;16.848;2022-12-18T14:21:46;22.40;36.90
21425;DHT22;10873;51.132;16.848;2022-12-18T14:24:14;22.40;36.90
21425;DHT22;10873;51.132;16.848;2022-12-18T14:26:41;22.40;36.90
21425;DHT22;10873;51.132;16.848;2022-12-18T14:29:23;22.40;36.80
21425;DHT22;10873;51.132;16.848;2022-12-18T14:32:10;22.40;36.80
21425;DHT22;10873;51.132;16.848;2022-12-18T14:34:36;22.40;36.70
21425;DHT22;10873;51.132;16.848;2022-12-18T14:37:03;22.40;36.70
21425;DHT22;10873;51.132;16.848;2022-12-18T14:39:29;22.40;36.80
21425;DHT22;10873;51.132;16.848;2022-12-18T14:41:55;22.40;37.30
21425;DHT22;10873;51.132;16.848;2022-12-18T14:44:21;22.40;38.00
21425;DHT22;10873;51.132;16.848;2022-12-18T14:46:48;22.40;38.10
21425;DHT22;10873;51.132;16.848;2022-12-18T14:49:21;22.40;38.00
21425;DHT22;10873;51.132;16.848;2022-12-18T14:51:50;22.50;38.00
21425;DHT22;10873;51.132;16.848;2022-12-18T14:54:18;22.50;37.90
21425;DHT22;10873;51.132;16.848;2022-12-18T14:56:46;22.50;37.80
21425;DHT22;10873;51.132;16.848;2022-12-18T14:59:15;22.50;37.70
21425;DHT22;10873;51.132;16.848;2022-12-18T15:01:46;22.50;37.70
21425;DHT22;10873;51.132;16.848;2022-12-18T15:04:26;22.50;37.60
21425;DHT22;10873;51.132;16.848;2022-12-18T15:07:12;22.50;37.60
21425;DHT22;10873;51.132;16.848;2022-12-18T15:09:40;22.50;37.60
21425;DHT22;10873;51.132;16.848;2022-12-18T15:12:21;22.50;37.50
21425;DHT22;10873;51.132;16.848;2022-12-18T15:14:48;22.50;37.50
21425;DHT22;10873;51.132;16.848;2022-12-18T15:17:17;22.40;37.40
21425;DHT22;10873;51.132;16.848;2022-12-18T15:19:46;22.40;37.40
21425;DHT22;10873;51.132;16.848;2022-12-18T15:22:19;22.40;37.30
21425;DHT22;10873;51.132;16.848;2022-12-18T15:24:46;22.40;37.30
21425;DHT22;10873;51.132;16.848;2022-12-18T15:27:21;22.40;37.40
21425;DHT22;10873;51.132;16.848;2022-12-18T15:32:40;22.40;37.30
21425;DHT22;10873;51.132;16.848;2022-12-18T15:35:14;22.40;37.30